Arkansas City, Arkansas
Current Conditions -  °F | °C
As of 7:53 AM on Monday 24 Nov 2014 (Local Time) from KGLH Reporting Station
Clear Clear  
Wind Chill: 51°   Ceiling: Unl
Heat Index: 51°   Visibility: 10mi
Dew Point: 41°   Wind: 14mph
Humidity: 68%   Direction: 300°WNW
Pressure: 29.86"   Gusts: NA
Location:  33.61°N, 91.21°W
Report Text: KGLH 241353Z AUTO 30012KT 10SM CLR 11/05 A2986 RMK AO2 SLP117 T01060050
Loading
Personal Weather Stations






























Interactive Weather Map New forecast layout! Learn more

10-Day Weather Forecast

Advertisements
Track Severe Weather on mobile